sensor_id;sensor_type;location;lat;lon;timestamp;P1;durP1;ratioP1;P2;durP2;ratioP2
12112;SDS011;6120;52.250;8.478;2023-05-19T00:01:36;7.57;;;1.98;;
12112;SDS011;6120;52.250;8.478;2023-05-19T00:04:03;5.10;;;2.10;;
12112;SDS011;6120;52.250;8.478;2023-05-19T00:06:30;6.60;;;2.10;;
12112;SDS011;6120;52.250;8.478;2023-05-19T00:09:05;5.05;;;1.98;;
12112;SDS011;6120;52.250;8.478;2023-05-19T00:11:36;5.50;;;1.90;;
12112;SDS011;6120;52.250;8.478;2023-05-19T00:14:05;3.83;;;1.90;;
12112;SDS011;6120;52.250;8.478;2023-05-19T00:19:00;4.35;;;1.60;;
12112;SDS011;6120;52.250;8.478;2023-05-19T00:21:28;4.43;;;1.98;;
12112;SDS011;6120;52.250;8.478;2023-05-19T00:23:55;6.13;;;1.48;;
12112;SDS011;6120;52.250;8.478;2023-05-19T00:26:22;3.75;;;1.92;;
12112;SDS011;6120;52.250;8.478;2023-05-19T00:28:49;4.95;;;1.67;;
12112;SDS011;6120;52.250;8.478;2023-05-19T00:31:16;4.55;;;1.60;;
12112;SDS011;6120;52.250;8.478;2023-05-19T00:33:43;5.57;;;1.90;;
12112;SDS011;6120;52.250;8.478;2023-05-19T00:36:09;4.38;;;1.75;;
12112;SDS011;6120;52.250;8.478;2023-05-19T00:38:36;5.40;;;2.05;;
12112;SDS011;6120;52.250;8.478;2023-05-19T00:41:04;4.65;;;1.80;;
12112;SDS011;6120;52.250;8.478;2023-05-19T00:43:31;5.43;;;2.10;;
12112;SDS011;6120;52.250;8.478;2023-05-19T00:46:00;5.82;;;1.92;;
12112;SDS011;6120;52.250;8.478;2023-05-19T00:48:27;7.57;;;2.10;;
12112;SDS011;6120;52.250;8.478;2023-05-19T00:50:58;3.88;;;1.60;;
12112;SDS011;6120;52.250;8.478;2023-05-19T00:53:30;5.00;;;1.95;;
12112;SDS011;6120;52.250;8.478;2023-05-19T00:55:58;5.60;;;1.80;;
12112;SDS011;6120;52.250;8.478;2023-05-19T00:58:25;6.07;;;1.90;;
12112;SDS011;6120;52.250;8.478;2023-05-19T01:00:56;11.50;;;2.75;;
12112;SDS011;6120;52.250;8.478;2023-05-19T01:03:30;5.35;;;2.15;;
12112;SDS011;6120;52.250;8.478;2023-05-19T01:06:01;8.57;;;2.55;;
12112;SDS011;6120;52.250;8.478;2023-05-19T01:08:31;9.20;;;2.47;;
12112;SDS011;6120;52.250;8.478;2023-05-19T01:10:58;5.82;;;2.50;;
12112;SDS011;6120;52.250;8.478;2023-05-19T01:13:25;7.15;;;2.58;;
12112;SDS011;6120;52.250;8.478;2023-05-19T01:24:51;6.43;;;2.90;;
12112;SDS011;6120;52.250;8.478;2023-05-19T01:30:16;5.35;;;2.72;;
12112;SDS011;6120;52.250;8.478;2023-05-19T01:32:44;9.68;;;3.08;;
12112;SDS011;6120;52.250;8.478;2023-05-19T01:35:12;7.35;;;3.20;;
12112;SDS011;6120;52.250;8.478;2023-05-19T01:37:40;6.13;;;2.53;;
12112;SDS011;6120;52.250;8.478;2023-05-19T01:40:07;5.47;;;2.70;;
12112;SDS011;6120;52.250;8.478;2023-05-19T01:42:35;6.78;;;2.97;;
12112;SDS011;6120;52.250;8.478;2023-05-19T01:45:05;7.45;;;2.92;;
12112;SDS011;6120;52.250;8.478;2023-05-19T01:47:36;8.05;;;2.97;;
12112;SDS011;6120;52.250;8.478;2023-05-19T01:50:09;6.65;;;2.88;;
12112;SDS011;6120;52.250;8.478;2023-05-19T01:52:36;7.47;;;2.95;;
12112;SDS011;6120;52.250;8.478;2023-05-19T01:55:03;8.05;;;3.03;;
12112;SDS011;6120;52.250;8.478;2023-05-19T02:02:55;10.20;;;2.88;;
12112;SDS011;6120;52.250;8.478;2023-05-19T02:05:46;5.32;;;2.67;;
12112;SDS011;6120;52.250;8.478;2023-05-19T02:11:37;8.95;;;2.80;;
12112;SDS011;6120;52.250;8.478;2023-05-19T02:14:15;5.30;;;2.40;;
12112;SDS011;6120;52.250;8.478;2023-05-19T02:16:46;6.18;;;2.83;;
12112;SDS011;6120;52.250;8.478;2023-05-19T02:19:22;7.68;;;2.97;;
12112;SDS011;6120;52.250;8.478;2023-05-19T02:21:51;5.88;;;2.60;;
12112;SDS011;6120;52.250;8.478;2023-05-19T02:24:18;5.43;;;2.28;;
12112;SDS011;6120;52.250;8.478;2023-05-19T02:26:45;9.77;;;3.03;;
12112;SDS011;6120;52.250;8.478;2023-05-19T02:29:11;7.22;;;2.50;;
12112;SDS011;6120;52.250;8.478;2023-05-19T02:31:38;7.28;;;2.63;;
12112;SDS011;6120;52.250;8.478;2023-05-19T02:34:05;4.63;;;2.53;;
12112;SDS011;6120;52.250;8.478;2023-05-19T02:36:34;4.75;;;2.38;;
12112;SDS011;6120;52.250;8.478;2023-05-19T02:39:02;7.65;;;2.38;;
12112;SDS011;6120;52.250;8.478;2023-05-19T02:41:29;7.28;;;2.40;;
12112;SDS011;6120;52.250;8.478;2023-05-19T02:43:56;6.68;;;2.63;;
12112;SDS011;6120;52.250;8.478;2023-05-19T02:46:23;5.40;;;2.28;;
12112;SDS011;6120;52.250;8.478;2023-05-19T02:48:50;4.40;;;2.22;;
12112;SDS011;6120;52.250;8.478;2023-05-19T02:51:17;6.10;;;2.03;;
12112;SDS011;6120;52.250;8.478;2023-05-19T02:53:44;6.00;;;2.20;;
12112;SDS011;6120;52.250;8.478;2023-05-19T02:56:10;7.13;;;2.55;;
12112;SDS011;6120;52.250;8.478;2023-05-19T02:58:37;6.57;;;1.92;;
12112;SDS011;6120;52.250;8.478;2023-05-19T03:01:04;4.90;;;2.60;;
12112;SDS011;6120;52.250;8.478;2023-05-19T03:03:31;4.25;;;2.00;;
12112;SDS011;6120;52.250;8.478;2023-05-19T03:05:58;5.95;;;2.30;;
12112;SDS011;6120;52.250;8.478;2023-05-19T03:08:24;4.60;;;2.25;;
12112;SDS011;6120;52.250;8.478;2023-05-19T03:10:51;5.00;;;2.13;;
12112;SDS011;6120;52.250;8.478;2023-05-19T03:13:18;4.97;;;2.78;;
12112;SDS011;6120;52.250;8.478;2023-05-19T03:15:44;5.25;;;2.67;;
12112;SDS011;6120;52.250;8.478;2023-05-19T03:18:11;4.35;;;2.75;;
12112;SDS011;6120;52.250;8.478;2023-05-19T03:20:38;5.65;;;3.10;;
12112;SDS011;6120;52.250;8.478;2023-05-19T03:23:06;8.38;;;3.95;;
12112;SDS011;6120;52.250;8.478;2023-05-19T03:25:34;7.13;;;3.13;;
12112;SDS011;6120;52.250;8.478;2023-05-19T03:28:01;5.38;;;3.30;;
12112;SDS011;6120;52.250;8.478;2023-05-19T03:30:27;6.47;;;3.20;;
12112;SDS011;6120;52.250;8.478;2023-05-19T03:32:54;10.60;;;3.72;;
12112;SDS011;6120;52.250;8.478;2023-05-19T03:35:21;6.32;;;3.53;;
12112;SDS011;6120;52.250;8.478;2023-05-19T03:37:47;9.25;;;3.38;;
12112;SDS011;6120;52.250;8.478;2023-05-19T03:40:14;11.63;;;3.22;;
12112;SDS011;6120;52.250;8.478;2023-05-19T03:42:41;6.35;;;3.20;;
12112;SDS011;6120;52.250;8.478;2023-05-19T03:45:07;5.10;;;2.95;;
12112;SDS011;6120;52.250;8.478;2023-05-19T03:47:34;5.95;;;3.35;;
12112;SDS011;6120;52.250;8.478;2023-05-19T03:50:01;7.18;;;3.70;;
12112;SDS011;6120;52.250;8.478;2023-05-19T03:52:27;5.75;;;3.08;;
12112;SDS011;6120;52.250;8.478;2023-05-19T03:54:54;6.63;;;3.53;;
12112;SDS011;6120;52.250;8.478;2023-05-19T03:57:22;6.55;;;3.75;;
12112;SDS011;6120;52.250;8.478;2023-05-19T03:59:49;6.80;;;3.42;;
12112;SDS011;6120;52.250;8.478;2023-05-19T04:02:16;6.30;;;3.47;;
12112;SDS011;6120;52.250;8.478;2023-05-19T04:04:42;7.18;;;3.17;;
12112;SDS011;6120;52.250;8.478;2023-05-19T04:07:09;8.90;;;3.70;;
12112;SDS011;6120;52.250;8.478;2023-05-19T04:09:36;7.43;;;3.65;;
12112;SDS011;6120;52.250;8.478;2023-05-19T04:12:04;10.48;;;4.07;;
12112;SDS011;6120;52.250;8.478;2023-05-19T04:14:31;10.20;;;3.97;;
12112;SDS011;6120;52.250;8.478;2023-05-19T04:16:58;10.02;;;3.92;;
12112;SDS011;6120;52.250;8.478;2023-05-19T04:19:25;8.52;;;3.55;;
12112;SDS011;6120;52.250;8.478;2023-05-19T04:21:51;7.60;;;3.92;;
12112;SDS011;6120;52.250;8.478;2023-05-19T04:24:18;10.48;;;4.15;;
12112;SDS011;6120;52.250;8.478;2023-05-19T04:26:45;8.82;;;4.43;;
12112;SDS011;6120;52.250;8.478;2023-05-19T04:29:12;7.55;;;4.38;;
12112;SDS011;6120;52.250;8.478;2023-05-19T04:31:44;7.65;;;4.15;;
12112;SDS011;6120;52.250;8.478;2023-05-19T04:34:11;10.20;;;4.72;;
12112;SDS011;6120;52.250;8.478;2023-05-19T04:36:37;7.95;;;4.20;;
12112;SDS011;6120;52.250;8.478;2023-05-19T04:39:04;9.95;;;4.28;;
12112;SDS011;6120;52.250;8.478;2023-05-19T04:41:34;7.30;;;3.90;;
12112;SDS011;6120;52.250;8.478;2023-05-19T04:44:01;9.02;;;4.32;;
12112;SDS011;6120;52.250;8.478;2023-05-19T04:46:27;11.45;;;4.22;;
12112;SDS011;6120;52.250;8.478;2023-05-19T04:48:55;6.80;;;4.03;;
12112;SDS011;6120;52.250;8.478;2023-05-19T04:51:22;9.85;;;4.78;;
12112;SDS011;6120;52.250;8.478;2023-05-19T04:53:56;8.60;;;3.92;;
12112;SDS011;6120;52.250;8.478;2023-05-19T04:56:22;8.85;;;4.40;;
12112;SDS011;6120;52.250;8.478;2023-05-19T04:58:49;8.02;;;5.00;;
12112;SDS011;6120;52.250;8.478;2023-05-19T05:01:16;8.07;;;4.88;;
12112;SDS011;6120;52.250;8.478;2023-05-19T05:03:43;8.20;;;4.20;;
12112;SDS011;6120;52.250;8.478;2023-05-19T05:06:09;7.95;;;4.68;;
12112;SDS011;6120;52.250;8.478;2023-05-19T05:08:36;12.38;;;4.95;;
12112;SDS011;6120;52.250;8.478;2023-05-19T05:11:05;8.02;;;4.93;;
12112;SDS011;6120;52.250;8.478;2023-05-19T05:13:32;8.35;;;4.55;;
12112;SDS011;6120;52.250;8.478;2023-05-19T05:15:59;9.32;;;4.82;;
12112;SDS011;6120;52.250;8.478;2023-05-19T05:18:26;9.35;;;5.00;;
12112;SDS011;6120;52.250;8.478;2023-05-19T05:20:53;11.25;;;4.35;;
12112;SDS011;6120;52.250;8.478;2023-05-19T05:23:20;10.07;;;5.40;;
12112;SDS011;6120;52.250;8.478;2023-05-19T05:25:47;9.40;;;4.57;;
12112;SDS011;6120;52.250;8.478;2023-05-19T05:28:14;9.85;;;4.47;;
12112;SDS011;6120;52.250;8.478;2023-05-19T05:30:40;13.68;;;5.80;;
12112;SDS011;6120;52.250;8.478;2023-05-19T05:33:08;10.57;;;4.50;;
12112;SDS011;6120;52.250;8.478;2023-05-19T05:35:36;12.52;;;5.75;;
12112;SDS011;6120;52.250;8.478;2023-05-19T05:38:02;10.60;;;4.97;;
12112;SDS011;6120;52.250;8.478;2023-05-19T05:40:29;9.02;;;4.78;;
12112;SDS011;6120;52.250;8.478;2023-05-19T05:42:55;10.93;;;4.68;;
12112;SDS011;6120;52.250;8.478;2023-05-19T05:45:24;8.48;;;5.50;;
12112;SDS011;6120;52.250;8.478;2023-05-19T05:47:51;12.43;;;6.28;;
12112;SDS011;6120;52.250;8.478;2023-05-19T05:50:18;8.20;;;5.20;;
12112;SDS011;6120;52.250;8.478;2023-05-19T05:52:46;10.35;;;4.95;;
12112;SDS011;6120;52.250;8.478;2023-05-19T05:55:13;9.70;;;5.10;;
12112;SDS011;6120;52.250;8.478;2023-05-19T05:57:40;7.72;;;4.55;;
12112;SDS011;6120;52.250;8.478;2023-05-19T06:00:07;8.70;;;4.30;;
12112;SDS011;6120;52.250;8.478;2023-05-19T06:02:41;10.20;;;4.15;;
12112;SDS011;6120;52.250;8.478;2023-05-19T06:05:09;10.90;;;4.32;;
12112;SDS011;6120;52.250;8.478;2023-05-19T06:07:37;10.98;;;4.45;;
12112;SDS011;6120;52.250;8.478;2023-05-19T06:10:05;7.28;;;4.13;;
12112;SDS011;6120;52.250;8.478;2023-05-19T06:12:32;9.52;;;4.55;;
12112;SDS011;6120;52.250;8.478;2023-05-19T06:15:00;11.82;;;4.30;;
12112;SDS011;6120;52.250;8.478;2023-05-19T06:19:54;8.85;;;4.15;;
12112;SDS011;6120;52.250;8.478;2023-05-19T06:22:21;7.68;;;4.10;;
12112;SDS011;6120;52.250;8.478;2023-05-19T06:24:48;7.93;;;4.03;;
12112;SDS011;6120;52.250;8.478;2023-05-19T06:27:14;10.98;;;4.47;;
12112;SDS011;6120;52.250;8.478;2023-05-19T06:29:41;10.85;;;3.78;;
12112;SDS011;6120;52.250;8.478;2023-05-19T06:32:07;9.20;;;3.00;;
12112;SDS011;6120;52.250;8.478;2023-05-19T06:34:34;7.57;;;3.20;;
12112;SDS011;6120;52.250;8.478;2023-05-19T06:37:02;6.85;;;3.08;;
12112;SDS011;6120;52.250;8.478;2023-05-19T06:39:28;7.93;;;2.72;;
12112;SDS011;6120;52.250;8.478;2023-05-19T06:41:55;5.72;;;3.03;;
12112;SDS011;6120;52.250;8.478;2023-05-19T06:44:22;7.00;;;3.08;;
12112;SDS011;6120;52.250;8.478;2023-05-19T06:46:48;5.57;;;2.42;;
12112;SDS011;6120;52.250;8.478;2023-05-19T06:49:15;8.52;;;2.92;;
12112;SDS011;6120;52.250;8.478;2023-05-19T06:51:42;7.20;;;3.08;;
12112;SDS011;6120;52.250;8.478;2023-05-19T06:54:09;10.57;;;3.80;;
12112;SDS011;6120;52.250;8.478;2023-05-19T06:56:38;8.48;;;2.97;;
12112;SDS011;6120;52.250;8.478;2023-05-19T06:59:04;7.70;;;3.20;;
12112;SDS011;6120;52.250;8.478;2023-05-19T07:01:31;8.40;;;3.00;;
12112;SDS011;6120;52.250;8.478;2023-05-19T07:03:59;8.90;;;3.15;;
12112;SDS011;6120;52.250;8.478;2023-05-19T07:06:26;7.05;;;3.05;;
12112;SDS011;6120;52.250;8.478;2023-05-19T07:08:53;9.27;;;3.58;;
12112;SDS011;6120;52.250;8.478;2023-05-19T07:11:20;9.93;;;3.60;;
12112;SDS011;6120;52.250;8.478;2023-05-19T07:13:47;10.32;;;3.40;;
12112;SDS011;6120;52.250;8.478;2023-05-19T07:16:13;6.53;;;3.10;;
12112;SDS011;6120;52.250;8.478;2023-05-19T07:18:40;7.28;;;2.90;;
12112;SDS011;6120;52.250;8.478;2023-05-19T07:21:07;10.13;;;3.15;;
12112;SDS011;6120;52.250;8.478;2023-05-19T07:23:33;4.78;;;3.00;;
12112;SDS011;6120;52.250;8.478;2023-05-19T07:26:00;5.15;;;2.90;;
12112;SDS011;6120;52.250;8.478;2023-05-19T07:28:27;7.07;;;3.47;;
12112;SDS011;6120;52.250;8.478;2023-05-19T07:30:53;7.55;;;3.13;;
12112;SDS011;6120;52.250;8.478;2023-05-19T07:33:20;5.53;;;2.80;;
12112;SDS011;6120;52.250;8.478;2023-05-19T07:35:47;8.57;;;2.95;;
12112;SDS011;6120;52.250;8.478;2023-05-19T07:38:13;7.95;;;3.70;;
12112;SDS011;6120;52.250;8.478;2023-05-19T07:40:40;7.60;;;3.70;;
12112;SDS011;6120;52.250;8.478;2023-05-19T07:43:07;6.93;;;3.50;;
12112;SDS011;6120;52.250;8.478;2023-05-19T07:45:33;8.52;;;4.20;;
12112;SDS011;6120;52.250;8.478;2023-05-19T07:48:00;10.10;;;3.47;;
12112;SDS011;6120;52.250;8.478;2023-05-19T07:50:27;10.10;;;3.03;;
12112;SDS011;6120;52.250;8.478;2023-05-19T07:52:54;7.65;;;2.80;;
12112;SDS011;6120;52.250;8.478;2023-05-19T07:55:21;7.85;;;2.72;;
12112;SDS011;6120;52.250;8.478;2023-05-19T07:57:48;7.47;;;3.05;;
12112;SDS011;6120;52.250;8.478;2023-05-19T08:00:16;13.70;;;3.37;;
12112;SDS011;6120;52.250;8.478;2023-05-19T08:02:43;8.88;;;3.10;;
12112;SDS011;6120;52.250;8.478;2023-05-19T08:05:10;11.93;;;3.33;;
12112;SDS011;6120;52.250;8.478;2023-05-19T08:07:37;6.53;;;2.70;;
12112;SDS011;6120;52.250;8.478;2023-05-19T08:10:03;11.77;;;3.67;;
12112;SDS011;6120;52.250;8.478;2023-05-19T08:12:30;6.93;;;2.90;;
12112;SDS011;6120;52.250;8.478;2023-05-19T08:14:57;4.28;;;2.60;;
12112;SDS011;6120;52.250;8.478;2023-05-19T08:17:27;8.75;;;3.00;;
12112;SDS011;6120;52.250;8.478;2023-05-19T08:19:53;5.72;;;3.03;;
12112;SDS011;6120;52.250;8.478;2023-05-19T08:22:20;9.15;;;3.65;;
12112;SDS011;6120;52.250;8.478;2023-05-19T08:24:47;5.68;;;3.33;;
12112;SDS011;6120;52.250;8.478;2023-05-19T08:27:14;8.10;;;3.17;;
12112;SDS011;6120;52.250;8.478;2023-05-19T08:29:41;5.60;;;2.53;;
12112;SDS011;6120;52.250;8.478;2023-05-19T08:32:08;11.02;;;3.10;;
12112;SDS011;6120;52.250;8.478;2023-05-19T08:34:38;6.40;;;2.83;;
12112;SDS011;6120;52.250;8.478;2023-05-19T08:37:05;8.38;;;2.83;;
12112;SDS011;6120;52.250;8.478;2023-05-19T08:39:32;12.27;;;3.40;;
12112;SDS011;6120;52.250;8.478;2023-05-19T08:42:00;7.75;;;2.97;;
12112;SDS011;6120;52.250;8.478;2023-05-19T08:44:27;7.63;;;3.20;;
12112;SDS011;6120;52.250;8.478;2023-05-19T08:49:22;7.10;;;3.17;;
12112;SDS011;6120;52.250;8.478;2023-05-19T08:51:59;9.25;;;3.00;;
12112;SDS011;6120;52.250;8.478;2023-05-19T08:54:42;9.10;;;3.45;;
12112;SDS011;6120;52.250;8.478;2023-05-19T08:57:12;7.00;;;2.80;;
12112;SDS011;6120;52.250;8.478;2023-05-19T08:59:39;9.20;;;3.13;;
12112;SDS011;6120;52.250;8.478;2023-05-19T09:02:06;6.53;;;2.50;;
12112;SDS011;6120;52.250;8.478;2023-05-19T09:04:34;7.68;;;2.90;;
12112;SDS011;6120;52.250;8.478;2023-05-19T09:07:01;6.70;;;2.60;;
12112;SDS011;6120;52.250;8.478;2023-05-19T09:09:29;6.50;;;2.00;;
12112;SDS011;6120;52.250;8.478;2023-05-19T09:11:55;8.20;;;2.80;;
12112;SDS011;6120;52.250;8.478;2023-05-19T09:14:23;5.55;;;2.13;;
12112;SDS011;6120;52.250;8.478;2023-05-19T09:16:49;6.85;;;2.55;;
12112;SDS011;6120;52.250;8.478;2023-05-19T09:19:18;7.47;;;2.30;;
12112;SDS011;6120;52.250;8.478;2023-05-19T09:21:47;7.68;;;2.33;;
12112;SDS011;6120;52.250;8.478;2023-05-19T09:24:26;8.25;;;2.90;;
12112;SDS011;6120;52.250;8.478;2023-05-19T09:26:54;5.13;;;2.00;;
12112;SDS011;6120;52.250;8.478;2023-05-19T09:29:25;6.70;;;2.03;;
12112;SDS011;6120;52.250;8.478;2023-05-19T09:31:54;7.18;;;2.85;;
12112;SDS011;6120;52.250;8.478;2023-05-19T09:34:26;6.03;;;2.25;;
12112;SDS011;6120;52.250;8.478;2023-05-19T09:36:54;6.43;;;2.20;;
12112;SDS011;6120;52.250;8.478;2023-05-19T09:39:23;6.03;;;2.50;;
12112;SDS011;6120;52.250;8.478;2023-05-19T09:41:52;7.93;;;2.05;;
12112;SDS011;6120;52.250;8.478;2023-05-19T09:44:24;6.22;;;2.17;;
12112;SDS011;6120;52.250;8.478;2023-05-19T09:46:56;4.88;;;1.95;;
12112;SDS011;6120;52.250;8.478;2023-05-19T09:49:26;5.55;;;1.85;;
12112;SDS011;6120;52.250;8.478;2023-05-19T09:51:56;6.32;;;1.92;;
12112;SDS011;6120;52.250;8.478;2023-05-19T09:54:30;4.65;;;1.70;;
12112;SDS011;6120;52.250;8.478;2023-05-19T09:57:00;3.88;;;1.30;;
12112;SDS011;6120;52.250;8.478;2023-05-19T09:59:30;4.65;;;1.60;;
12112;SDS011;6120;52.250;8.478;2023-05-19T10:01:59;3.90;;;1.42;;
12112;SDS011;6120;52.250;8.478;2023-05-19T10:04:27;3.80;;;1.48;;
12112;SDS011;6120;52.250;8.478;2023-05-19T10:06:56;5.00;;;1.70;;
12112;SDS011;6120;52.250;8.478;2023-05-19T10:09:31;4.85;;;1.55;;
12112;SDS011;6120;52.250;8.478;2023-05-19T10:12:00;5.93;;;1.63;;
12112;SDS011;6120;52.250;8.478;2023-05-19T10:14:29;5.85;;;1.65;;
12112;SDS011;6120;52.250;8.478;2023-05-19T10:16:56;3.25;;;1.60;;
12112;SDS011;6120;52.250;8.478;2023-05-19T10:19:26;5.93;;;2.03;;
12112;SDS011;6120;52.250;8.478;2023-05-19T10:21:53;3.55;;;1.42;;
12112;SDS011;6120;52.250;8.478;2023-05-19T10:24:21;4.32;;;1.50;;
12112;SDS011;6120;52.250;8.478;2023-05-19T10:26:55;6.60;;;1.90;;
12112;SDS011;6120;52.250;8.478;2023-05-19T10:29:27;4.65;;;1.52;;
12112;SDS011;6120;52.250;8.478;2023-05-19T10:31:58;4.05;;;1.50;;
12112;SDS011;6120;52.250;8.478;2023-05-19T10:39:43;7.20;;;1.85;;
12112;SDS011;6120;52.250;8.478;2023-05-19T10:47:26;4.70;;;1.77;;
12112;SDS011;6120;52.250;8.478;2023-05-19T10:49:54;8.00;;;2.08;;
12112;SDS011;6120;52.250;8.478;2023-05-19T10:52:22;4.57;;;1.60;;
12112;SDS011;6120;52.250;8.478;2023-05-19T10:54:51;3.72;;;1.52;;
12112;SDS011;6120;52.250;8.478;2023-05-19T10:57:26;4.00;;;1.40;;
12112;SDS011;6120;52.250;8.478;2023-05-19T10:59:58;6.43;;;1.67;;
12112;SDS011;6120;52.250;8.478;2023-05-19T11:02:43;9.70;;;1.70;;
12112;SDS011;6120;52.250;8.478;2023-05-19T11:05:10;7.38;;;1.80;;
12112;SDS011;6120;52.250;8.478;2023-05-19T11:07:41;4.75;;;2.05;;
12112;SDS011;6120;52.250;8.478;2023-05-19T11:10:22;5.30;;;1.40;;
12112;SDS011;6120;52.250;8.478;2023-05-19T11:12:49;4.00;;;1.53;;
12112;SDS011;6120;52.250;8.478;2023-05-19T11:15:17;5.75;;;1.65;;
12112;SDS011;6120;52.250;8.478;2023-05-19T11:17:47;5.25;;;1.75;;
12112;SDS011;6120;52.250;8.478;2023-05-19T11:20:24;5.53;;;1.50;;
12112;SDS011;6120;52.250;8.478;2023-05-19T11:23:06;2.03;;;1.02;;
12112;SDS011;6120;52.250;8.478;2023-05-19T11:28:11;5.35;;;1.50;;
12112;SDS011;6120;52.250;8.478;2023-05-19T11:30:42;4.22;;;1.10;;
12112;SDS011;6120;52.250;8.478;2023-05-19T11:33:10;3.70;;;1.30;;
12112;SDS011;6120;52.250;8.478;2023-05-19T11:35:38;6.82;;;1.40;;
12112;SDS011;6120;52.250;8.478;2023-05-19T11:38:06;4.65;;;1.50;;
12112;SDS011;6120;52.250;8.478;2023-05-19T11:40:33;5.28;;;1.60;;
12112;SDS011;6120;52.250;8.478;2023-05-19T11:42:59;2.75;;;1.40;;
12112;SDS011;6120;52.250;8.478;2023-05-19T11:45:27;3.40;;;1.33;;
12112;SDS011;6120;52.250;8.478;2023-05-19T11:47:55;4.35;;;1.50;;
12112;SDS011;6120;52.250;8.478;2023-05-19T11:50:29;8.02;;;1.92;;
12112;SDS011;6120;52.250;8.478;2023-05-19T11:52:58;7.03;;;1.65;;
12112;SDS011;6120;52.250;8.478;2023-05-19T11:55:25;5.63;;;1.27;;
12112;SDS011;6120;52.250;8.478;2023-05-19T11:57:55;5.60;;;1.52;;
12112;SDS011;6120;52.250;8.478;2023-05-19T12:00:34;4.20;;;1.67;;
12112;SDS011;6120;52.250;8.478;2023-05-19T12:03:03;3.20;;;1.15;;
12112;SDS011;6120;52.250;8.478;2023-05-19T12:05:30;4.05;;;1.67;;
12112;SDS011;6120;52.250;8.478;2023-05-19T12:08:02;6.22;;;2.30;;
12112;SDS011;6120;52.250;8.478;2023-05-19T12:10:29;5.03;;;1.50;;
12112;SDS011;6120;52.250;8.478;2023-05-19T12:12:57;3.93;;;1.40;;
12112;SDS011;6120;52.250;8.478;2023-05-19T12:15:24;3.53;;;1.77;;
12112;SDS011;6120;52.250;8.478;2023-05-19T12:17:58;2.78;;;1.50;;
12112;SDS011;6120;52.250;8.478;2023-05-19T12:20:26;4.55;;;1.63;;
12112;SDS011;6120;52.250;8.478;2023-05-19T12:22:54;4.15;;;1.77;;
12112;SDS011;6120;52.250;8.478;2023-05-19T12:25:22;7.35;;;1.80;;
12112;SDS011;6120;52.250;8.478;2023-05-19T12:27:49;3.57;;;1.63;;
12112;SDS011;6120;52.250;8.478;2023-05-19T12:30:17;7.18;;;2.30;;
12112;SDS011;6120;52.250;8.478;2023-05-19T12:32:52;8.02;;;2.10;;
12112;SDS011;6120;52.250;8.478;2023-05-19T12:35:19;5.63;;;1.40;;
12112;SDS011;6120;52.250;8.478;2023-05-19T12:37:48;4.18;;;1.33;;
12112;SDS011;6120;52.250;8.478;2023-05-19T12:40:15;3.53;;;1.55;;
12112;SDS011;6120;52.250;8.478;2023-05-19T12:42:45;4.57;;;1.30;;
12112;SDS011;6120;52.250;8.478;2023-05-19T12:45:13;10.05;;;1.30;;
12112;SDS011;6120;52.250;8.478;2023-05-19T12:47:40;5.90;;;1.88;;
12112;SDS011;6120;52.250;8.478;2023-05-19T12:50:07;7.10;;;1.60;;
12112;SDS011;6120;52.250;8.478;2023-05-19T12:52:42;3.50;;;1.33;;
12112;SDS011;6120;52.250;8.478;2023-05-19T12:55:10;4.80;;;1.55;;
12112;SDS011;6120;52.250;8.478;2023-05-19T12:57:46;2.92;;;1.20;;
12112;SDS011;6120;52.250;8.478;2023-05-19T13:00:19;4.07;;;1.20;;
12112;SDS011;6120;52.250;8.478;2023-05-19T13:02:54;4.88;;;1.60;;
12112;SDS011;6120;52.250;8.478;2023-05-19T13:05:21;7.65;;;2.03;;
12112;SDS011;6120;52.250;8.478;2023-05-19T13:07:58;14.32;;;3.50;;
12112;SDS011;6120;52.250;8.478;2023-05-19T13:10:26;4.35;;;1.70;;
12112;SDS011;6120;52.250;8.478;2023-05-19T13:12:53;3.15;;;1.23;;
12112;SDS011;6120;52.250;8.478;2023-05-19T13:15:21;6.80;;;2.03;;
12112;SDS011;6120;52.250;8.478;2023-05-19T13:17:49;7.15;;;1.65;;
12112;SDS011;6120;52.250;8.478;2023-05-19T13:20:16;3.38;;;1.60;;
12112;SDS011;6120;52.250;8.478;2023-05-19T13:22:43;8.13;;;1.92;;
12112;SDS011;6120;52.250;8.478;2023-05-19T13:25:10;2.85;;;1.40;;
12112;SDS011;6120;52.250;8.478;2023-05-19T13:27:37;4.20;;;1.35;;
12112;SDS011;6120;52.250;8.478;2023-05-19T13:30:03;3.10;;;1.30;;
12112;SDS011;6120;52.250;8.478;2023-05-19T13:32:31;2.50;;;1.27;;
12112;SDS011;6120;52.250;8.478;2023-05-19T13:34:59;4.47;;;1.42;;
12112;SDS011;6120;52.250;8.478;2023-05-19T13:37:26;5.03;;;1.80;;
12112;SDS011;6120;52.250;8.478;2023-05-19T13:39:53;5.15;;;1.40;;
12112;SDS011;6120;52.250;8.478;2023-05-19T13:42:20;2.97;;;1.33;;
12112;SDS011;6120;52.250;8.478;2023-05-19T13:44:47;3.13;;;1.20;;
12112;SDS011;6120;52.250;8.478;2023-05-19T13:47:14;4.82;;;2.00;;
12112;SDS011;6120;52.250;8.478;2023-05-19T13:49:41;4.40;;;1.73;;
12112;SDS011;6120;52.250;8.478;2023-05-19T13:52:07;2.50;;;1.40;;
12112;SDS011;6120;52.250;8.478;2023-05-19T13:54:34;2.58;;;1.40;;
12112;SDS011;6120;52.250;8.478;2023-05-19T13:57:01;2.60;;;1.27;;
12112;SDS011;6120;52.250;8.478;2023-05-19T13:59:27;3.30;;;1.30;;
12112;SDS011;6120;52.250;8.478;2023-05-19T14:01:54;4.00;;;1.33;;
12112;SDS011;6120;52.250;8.478;2023-05-19T14:04:21;4.20;;;1.13;;
12112;SDS011;6120;52.250;8.478;2023-05-19T14:06:51;5.60;;;2.00;;
12112;SDS011;6120;52.250;8.478;2023-05-19T14:09:18;5.32;;;1.38;;
12112;SDS011;6120;52.250;8.478;2023-05-19T14:11:46;2.67;;;1.30;;
12112;SDS011;6120;52.250;8.478;2023-05-19T14:14:12;3.58;;;1.60;;
12112;SDS011;6120;52.250;8.478;2023-05-19T14:16:39;3.30;;;1.40;;
12112;SDS011;6120;52.250;8.478;2023-05-19T14:19:06;5.00;;;1.38;;
12112;SDS011;6120;52.250;8.478;2023-05-19T14:21:33;3.47;;;1.50;;
12112;SDS011;6120;52.250;8.478;2023-05-19T14:24:00;3.38;;;1.60;;
12112;SDS011;6120;52.250;8.478;2023-05-19T14:26:27;6.88;;;2.10;;
12112;SDS011;6120;52.250;8.478;2023-05-19T14:28:54;4.03;;;1.60;;
12112;SDS011;6120;52.250;8.478;2023-05-19T14:31:22;4.07;;;1.97;;
12112;SDS011;6120;52.250;8.478;2023-05-19T14:33:49;3.08;;;1.60;;
12112;SDS011;6120;52.250;8.478;2023-05-19T14:36:16;5.13;;;1.75;;
12112;SDS011;6120;52.250;8.478;2023-05-19T14:38:43;3.03;;;1.27;;
12112;SDS011;6120;52.250;8.478;2023-05-19T14:41:09;4.20;;;1.60;;
12112;SDS011;6120;52.250;8.478;2023-05-19T14:43:36;3.60;;;1.35;;
12112;SDS011;6120;52.250;8.478;2023-05-19T14:46:03;5.18;;;1.60;;
12112;SDS011;6120;52.250;8.478;2023-05-19T14:48:29;4.97;;;1.48;;
12112;SDS011;6120;52.250;8.478;2023-05-19T14:50:56;3.75;;;1.50;;
12112;SDS011;6120;52.250;8.478;2023-05-19T14:53:22;4.82;;;1.55;;
12112;SDS011;6120;52.250;8.478;2023-05-19T14:55:49;4.20;;;1.40;;
12112;SDS011;6120;52.250;8.478;2023-05-19T14:58:16;5.05;;;1.50;;
12112;SDS011;6120;52.250;8.478;2023-05-19T15:00:56;2.72;;;1.15;;
12112;SDS011;6120;52.250;8.478;2023-05-19T15:03:23;2.75;;;1.40;;
12112;SDS011;6120;52.250;8.478;2023-05-19T15:05:50;4.82;;;1.38;;
12112;SDS011;6120;52.250;8.478;2023-05-19T15:08:16;2.83;;;1.23;;
12112;SDS011;6120;52.250;8.478;2023-05-19T15:10:46;4.45;;;1.40;;
12112;SDS011;6120;52.250;8.478;2023-05-19T15:13:14;4.00;;;1.35;;
12112;SDS011;6120;52.250;8.478;2023-05-19T15:15:41;5.13;;;1.40;;
12112;SDS011;6120;52.250;8.478;2023-05-19T15:18:07;3.38;;;1.30;;
12112;SDS011;6120;52.250;8.478;2023-05-19T15:20:34;10.32;;;2.92;;
12112;SDS011;6120;52.250;8.478;2023-05-19T15:23:01;6.65;;;2.10;;
12112;SDS011;6120;52.250;8.478;2023-05-19T15:25:28;4.13;;;1.60;;
12112;SDS011;6120;52.250;8.478;2023-05-19T15:27:55;3.47;;;1.45;;
12112;SDS011;6120;52.250;8.478;2023-05-19T15:30:21;3.85;;;1.52;;
12112;SDS011;6120;52.250;8.478;2023-05-19T15:32:48;3.10;;;1.50;;
12112;SDS011;6120;52.250;8.478;2023-05-19T15:35:15;3.58;;;1.52;;
12112;SDS011;6120;52.250;8.478;2023-05-19T15:37:42;3.72;;;1.30;;
12112;SDS011;6120;52.250;8.478;2023-05-19T15:40:08;2.90;;;1.42;;
12112;SDS011;6120;52.250;8.478;2023-05-19T15:42:35;3.05;;;1.30;;
12112;SDS011;6120;52.250;8.478;2023-05-19T15:45:02;2.00;;;1.10;;
12112;SDS011;6120;52.250;8.478;2023-05-19T15:47:30;5.72;;;1.55;;